Grand Canyon National Park Airport
KGCN : now visible

Airfield :











YOU CAN JOIN US ON...

 
LOGIN :

Register | Disclaimer

   EN    FR    IT 

 









Legend :    VFR   Marginal VFR   IFR   Intensive IFR   Very Intensive IFR
Visi :
Ceiling :
>= 8 km
>= 3000ft
5 to 8 km
1000 to 3000 ft
1500m to 5 km
500 to 1000 ft
800 to 1500m
200 to 500 ft
< 800m
< 200 ft
Symbols :   Thunderstorms  Fog  Heavy snow  Heavy precipitations  Wind > 20 kt






- Airport Elevation : 6609 ft
- IATA code : GCN


KGCN - Grand Canyon National Park

CURRENT METAR :
  • 230610Z AUTO 20010G19KT 6SM -SN BR OVC003 00/M01 A2981 RMK AO2 P0001 T00001006 TSNO

EXPIRED METARs :
  • 230601Z AUTO 20014G23KT 2SM -SN BR OVC003 00/M01 A2981 RMK AO2 P0001 T00001006 TSNO
  • 230554Z AUTO 20011G20KT 1SM -SN BR OVC003 00/M01 A2981 RMK AO2 PK WND 21034/0508 RAB02E11 SLP071 P0005 60015 T00001006 10039 20000 58006 TSNO
  • 230543Z AUTO 20016G27KT 1SM -SN BR OVC005 00/M01 A2981 RMK AO2 PK WND 21034/0508 RAB02E11 P0004 T00001006 TSNO
  • 230536Z AUTO 20020G31KT 1 1/2SM -SN BR OVC005 01/M01 A2982 RMK AO2 PK WND 21034/0508 RAB02E11 P0003 T00061006 TSNO
  • 230515Z AUTO 19015G34KT 1 3/4SM -SN BR OVC005 01/00 A2982 RMK AO2 PK WND 21034/0508 RAB02E11 P0002 T00060000 TSNO
  • 230454Z AUTO 20011G22KT 5SM -SN BR OVC005 01/00 A2982 RMK AO2 RAB0356E0359B33E43SNE33B43 SLP077 P0005 T00110000 TSNO
  • 230434Z AUTO 20009KT 6SM -RA BR OVC004 01/00 A2982 RMK AO2 RAB0356E0359B33SNE33 P0004 T00060000 TSNO
  • 230421Z AUTO 20012G19KT 2SM -SN BR OVC004 01/M01 A2982 RMK AO2 RAB0356E0359 P0003 T00061006 TSNO
  • 230414Z AUTO 21014G21KT 1SM -SN BR OVC004 01/M01 A2983 RMK AO2 RAB0356E0359 P0003 T00061006 TSNO
  • 230354Z AUTO 20012G17KT 6SM -SN BR BKN005 OVC009 01/00 A2983 RMK AO2 RAB05E42SNB42 SLP084 P0004 T00060000 TSNO

TAF KGCN
Valid from the 23 at 06:00 until the 24 at 06:00 UTC


230539Z 2306/2406 20015G26KT 2SM -SHSN OVC005 WS015/20045KT
FM231200 22014G24KT 4SM -SHSN OVC015
FM231600 23014G26KT P6SM VCSH BKN025
FM240300 24005KT 3SM -SHSN BR SCT015 OVC025
KZLA FIR / North America



MET'MAP, your aeronautical weather chart ! - Copyright ORBIFLY December 2007 - Disclaimer

ORBIFLY MET'MAP TEAM :

Programming & Development : Alexandra Zaïnal
Concept & original design : Baudouin d'Aumeries
Assistance for programming : Marc-Olivier Méhu
Technical & hardware support : Manuel Goepfert

Contact : metmap@orbifly.com




SOURCES & CREDITS :

   NOAA       Earth
Advisory